Nearby METAR Reports

 

KSJC - San Jose, California, USA
Distance from station: NE 14km
Actualización: 23/07/2021 21:53
Few Clouds
Few Clouds
 Viento del NNO
Viento: NNO 15 km/h
Temperatura: 27°C
Heat Index: 27°C
Rocío: 13°C
Humedad: 42%
Barómetro: 1015.2 hPa
Clouds: Few Clouds
Visibility: 16 km
Cloud details: Few Clouds 2896 m
2021/07/23 19:53 KSJC 231953Z 33008KT 10SM FEW095 27/13 A2998 RMK AO2 SLP152 T02720133
KNUQ - Moffett Nas/Mtn, California, USA
Distance from station: N 14km
Actualización: 23/07/2021 21:55
Despejado
Despejado
 Viento del N
Viento: N 17 km/h
Temperatura: 24°C
Rocío: 13°C
Humedad: 50%
Barómetro: 1015.6 hPa
Clouds: Despejado
Visibility: 14 km
2021/07/23 19:55 KNUQ 231955Z AUTO 35009KT 9SM CLR 24/13 A2999 RMK AO2
 
KPAO - Palo Alto, California, USA
Distance from station: NNO 23km
Actualización: 23/07/2021 21:47
Despejado
Despejado
 Viento del N
Viento: N 17 km/h
Temperatura: 22°C
Rocío: 14°C
Humedad: 61%
Barómetro: 1015.9 hPa
Clouds: Despejado
Visibility: 16 km
2021/07/23 19:47 KPAO 231947Z 36009KT 10SM SKC 22/14 A3000
KRHV - San Jose/Reid, California, USA
Distance from station: ENE 19km
Actualización: 23/07/2021 21:47
Despejado
Despejado
 Viento del NNO
Viento: NNO 13 km/h
Temperatura: 28°C
Rocío: 11°C
Humedad: 35%
Barómetro: 1015.6 hPa
Clouds: Despejado
Visibility: 16 km
2021/07/23 19:47 KRHV 231947Z 33007KT 10SM SKC 28/11 A2999
 
KOAK - Oakland, California, USA
Distance from station: NNO 50km
Actualización: 23/07/2021 21:53
Few Clouds
Few Clouds
 Viento del NO
Viento: NO 19 km/h
Temperatura: 22°C
Rocío: 13°C
Humedad: 57%
Barómetro: 1016.3 hPa
Clouds: Few Clouds
Visibility: 16 km
Cloud details: Few Clouds 6096 m
2021/07/23 19:53 KOAK 231953Z 31010KT 10SM FEW200 22/13 A3001 RMK AO2 SLP162 T02220128
KSQL - San Carlos Airpo, California, USA
Distance from station: NO 34km
Actualización: 23/07/2021 21:55
Despejado
Despejado
 Viento del N
Viento: N 15 km/h
Temperatura: 22°C
Rocío: 13°C
Humedad: 57%
Barómetro: 1016.3 hPa
Clouds: Despejado
Visibility: 16 km
2021/07/23 19:55 KSQL 231955Z 35008KT 10SM SKC 22/13 A3001
 
KSFO - San Francisco, California, USA
Distance from station: NO 49km
Actualización: 23/07/2021 21:56
Despejado
Despejado
 Viento del NNE
Viento: NNE 15 km/h
Temperatura: 21°C
Rocío: 14°C
Humedad: 64%
Barómetro: 1016.3 hPa
Clouds: Despejado
Visibility: 16 km
2021/07/23 19:56 KSFO 231956Z 02008KT 10SM CLR 21/14 A3001 RMK AO2 SLP161 T02110139
KE16 - San Martin, California, USA
Distance from station: ESE 43km
Actualización: 23/07/2021 21:55
Despejado
Despejado
 Viento del SE
Viento: SE 17 km/h
Temperatura: 24°C
Rocío: 10°C
Humedad: 41%
Barómetro: 1016.9 hPa
Clouds: Despejado
Visibility: 16 km
2021/07/23 19:55 KE16 231955Z AUTO 13009KT 10SM CLR 24/10 A3003 RMK AO2 PWINO PNO
 
KWVI - Watsonville, California, USA
Distance from station: SSE 44km
Actualización: 23/07/2021 21:53
Despejado
Despejado
 Viento del SO
Viento: SO 15 km/h
Temperatura: 19°C
Rocío: 12°C
Humedad: 64%
Barómetro: 1018.3 hPa
Clouds: Despejado
Visibility: 16 km
2021/07/23 19:53 KWVI 231953Z AUTO 22008KT 10SM CLR 19/12 A3007 RMK AO2 SLP181 T01940117
KHAF - Half Moon Bay, California, USA
Distance from station: ONO 50km
Actualización: 09/07/2021 16:35
NOT Current
Lluvia débil, Despejado
Lluvia débil, Despejado
 
Temperatura: 13°C
Rocío: 12°C
Humedad: 94%
Barómetro: 1012.9 hPa
Resumen: Lluvia débil
Clouds: Despejado
Visibility: 6 km
2021/07/09 14:35 KHAF 091435Z AUTO 4SM -RA CLR 13/12 A2991 RMK AO2
 
KHWD - Hayward, California, USA
Distance from station: N 44km
Actualización: 23/07/2021 21:54
Despejado
Despejado
 Viento del O
Viento: O 15 km/h
Temperatura: 23°C
Rocío: 13°C
Humedad: 53%
Barómetro: 1015.9 hPa
Clouds: Despejado
Visibility: 16 km
2021/07/23 19:54 KHWD 231954Z 28008KT 10SM CLR 23/13 A3000 RMK AO2 SLP167 T02330133
KLVK - Livermore, California, USA
Distance from station: NNE 51km
Actualización: 23/07/2021 21:53
Despejado
Despejado
 Viento del varies
Viento: varies 9 km/h
Temperatura: 31°C
Rocío: 8°C
Humedad: 24%
Barómetro: 1014.9 hPa
Clouds: Despejado
Visibility: 16 km
2021/07/23 19:53 KLVK 231953Z VRB05KT 10SM CLR 31/08 A2997 RMK AO2 SLP144 T03110078